Time;durP1;ratioP1;P1;durP2;ratioP2;P2;SDS_P1;SDS_P2;PMS_P1;PMS_P2;Temp;Humidity;BMP_temperature;BMP_pressure;BME280_temperature;BME280_humidity;BME280_pressure;Samples;Min_cycle;Max_cycle;Signal;HPM_P1;HPM_P2
2021/07/01 00:01:50;;;;;;;4.43;2.28;;;17.40;99.90;;;;;;5915093;40;20066;-72
2021/07/01 00:05:52;;;;;;;3.00;2.20;;;17.40;99.90;;;;;;5913364;40;20040;-71
2021/07/01 00:09:53;;;;;;;6.15;2.53;;;17.40;99.90;;;;;;5911098;40;20073;-72
2021/07/01 00:13:55;;;;;;;4.80;2.97;;;17.30;99.90;;;;;;5917310;39;20049;-71
2021/07/01 00:17:57;;;;;;;4.47;2.50;;;17.30;99.90;;;;;;5914532;40;20048;-72
2021/07/01 00:21:59;;;;;;;4.18;2.35;;;17.30;99.90;;;;;;5917130;40;20053;-72
2021/07/01 00:26:01;;;;;;;;;;;17.30;99.90;;;;;;5926907;39;20066;-71
2021/07/01 00:30:22;;;;;;;4.25;2.45;;;17.30;99.90;;;;;;5918433;39;19944;-71
2021/07/01 00:34:24;;;;;;;3.22;2.00;;;17.30;99.90;;;;;;5914895;39;20040;-71
2021/07/01 00:38:26;;;;;;;;;;;17.30;99.90;;;;;;5914521;39;20052;-71
2021/07/01 00:42:28;;;;;;;3.93;2.33;;;17.20;99.90;;;;;;5914489;39;19959;-70
2021/07/01 00:46:30;;;;;;;;;;;17.20;99.90;;;;;;5914560;40;20033;-70
2021/07/01 00:50:32;;;;;;;2.55;1.60;;;17.10;99.90;;;;;;5913274;39;19941;-71
2021/07/01 00:54:34;;;;;;;;;;;17.10;99.90;;;;;;5913960;39;20439;-71
2021/07/01 00:58:37;;;;;;;3.95;2.00;;;17.00;99.90;;;;;;5912005;40;19965;-70
2021/07/01 01:02:39;;;;;;;5.10;2.70;;;17.00;99.90;;;;;;5914503;40;20301;-71
2021/07/01 01:06:46;;;;;;;5.05;2.40;;;17.00;99.90;;;;;;5912740;39;20048;-71
2021/07/01 01:10:48;;;;;;;5.20;2.50;;;17.10;99.90;;;;;;5922191;39;20329;-71
2021/07/01 01:15:10;;;;;;;4.93;2.40;;;17.00;99.90;;;;;;5913431;39;20414;-71
2021/07/01 01:19:12;;;;;;;4.20;2.90;;;17.10;99.90;;;;;;5912517;40;20041;-71
2021/07/01 01:23:14;;;;;;;7.40;3.10;;;17.00;99.90;;;;;;5913610;39;20508;-71
2021/07/01 01:27:16;;;;;;;7.32;3.38;;;17.10;99.90;;;;;;5912429;39;20070;-71
2021/07/01 01:31:19;;;;;;;4.35;3.08;;;17.10;99.90;;;;;;5910756;40;20063;-71
2021/07/01 01:35:21;;;;;;;5.85;3.70;;;17.10;99.90;;;;;;5912797;40;20045;-72
2021/07/01 01:39:23;;;;;;;6.63;3.63;;;17.10;99.90;;;;;;5925025;39;20502;-71
2021/07/01 01:43:38;;;;;;;9.13;4.10;;;17.10;99.90;;;;;;5919783;39;20041;-71
2021/07/01 01:47:45;;;;;;;;;;;17.20;99.90;;;;;;5918273;40;20138;-71
2021/07/01 01:51:47;;;;;;;12.57;4.75;;;17.20;99.90;;;;;;5926374;39;19941;-72
2021/07/01 01:55:49;;;;;;;7.88;4.82;;;17.20;99.90;;;;;;5919267;39;20049;-72
2021/07/01 01:59:51;;;;;;;8.43;4.70;;;17.20;99.90;;;;;;5923630;39;20057;-71
2021/07/01 02:04:11;;;;;;;7.35;4.40;;;17.30;99.90;;;;;;5916007;40;20051;-71
2021/07/01 02:08:17;;;;;;;9.68;5.18;;;17.20;99.90;;;;;;5913307;40;20048;-71
2021/07/01 02:12:19;;;;;;;;;;;17.30;99.90;;;;;;5915578;39;20073;-71
2021/07/01 02:16:21;;;;;;;7.85;5.15;;;17.40;99.90;;;;;;5908757;40;19949;-71
2021/07/01 02:20:28;;;;;;;10.32;5.78;;;17.30;99.90;;;;;;5918043;39;20077;-71
2021/07/01 02:24:30;;;;;;;9.43;5.30;;;17.40;99.90;;;;;;5916615;39;20390;-71
2021/07/01 02:28:33;;;;;;;9.55;5.68;;;17.40;99.90;;;;;;5914992;40;20135;-71
2021/07/01 02:32:53;;;;;;;8.05;5.28;;;17.40;99.90;;;;;;5915105;39;20063;-71
2021/07/01 02:37:06;;;;;;;;;;;17.40;99.90;;;;;;5917046;40;20142;-71
2021/07/01 02:41:27;;;;;;;12.85;5.32;;;17.40;99.90;;;;;;5917702;39;19943;-71
2021/07/01 02:45:31;;;;;;;10.30;7.18;;;17.40;99.90;;;;;;5913688;40;20408;-71
2021/07/01 02:49:41;;;;;;;13.45;6.75;;;17.40;99.90;;;;;;5914529;39;20408;-71
2021/07/01 02:53:54;;;;;;;10.50;6.25;;;17.50;99.90;;;;;;5915864;39;20249;-71
2021/07/01 02:58:00;;;;;;;10.52;5.95;;;17.50;99.90;;;;;;5914446;39;20155;-71
2021/07/01 03:02:03;;;;;;;10.00;6.28;;;17.50;99.90;;;;;;5907555;39;20057;-71
2021/07/01 03:06:11;;;;;;;11.15;6.53;;;17.50;99.90;;;;;;5914441;39;20647;-72
2021/07/01 03:10:13;;;;;;;;;;;17.50;99.90;;;;;;5916062;40;20064;-72
2021/07/01 03:14:35;;;;;;;11.30;6.43;;;17.50;99.90;;;;;;5915954;39;19951;-71
2021/07/01 03:18:38;;;;;;;13.07;6.65;;;17.50;99.90;;;;;;5916242;39;20490;-71
2021/07/01 03:22:58;;;;;;;12.13;6.60;;;17.50;99.90;;;;;;5917393;39;20769;-71
2021/07/01 03:27:00;;;;;;;;;;;17.50;99.90;;;;;;5918011;39;20064;-72
2021/07/01 03:31:06;;;;;;;13.90;6.97;;;17.50;99.90;;;;;;5922072;40;20414;-71
2021/07/01 03:35:10;;;;;;;13.55;7.13;;;17.40;99.90;;;;;;5918738;39;20542;-71
2021/07/01 03:39:43;;;;;;;12.15;6.38;;;17.50;99.90;;;;;;5916217;39;20037;-71
2021/07/01 03:43:54;;;;;;;14.10;6.03;;;17.50;99.90;;;;;;5915260;39;20041;-71
2021/07/01 03:47:56;;;;;;;12.43;7.22;;;17.50;99.90;;;;;;5913946;39;20095;-71
2021/07/01 03:51:59;;;;;;;11.02;7.05;;;17.50;99.90;;;;;;5914220;40;20056;-71
2021/07/01 03:56:06;;;;;;;12.88;6.55;;;17.50;99.90;;;;;;5919100;39;20049;-71
2021/07/01 04:00:09;;;;;;;;;;;17.50;99.90;;;;;;5911986;39;20453;-71
2021/07/01 04:04:19;;;;;;;10.77;6.85;;;17.50;99.90;;;;;;5913303;39;19987;-71
2021/07/01 04:08:21;;;;;;;;;;;17.50;99.90;;;;;;5913121;39;20037;-71
2021/07/01 04:12:26;;;;;;;11.75;7.45;;;17.50;99.90;;;;;;5913462;39;20017;-71
2021/07/01 04:16:48;;;;;;;;;;;17.60;99.90;;;;;;5911599;40;20033;-70
2021/07/01 04:21:27;;;;;;;11.93;8.10;;;17.60;99.90;;;;;;5903962;40;19982;-71
2021/07/01 04:25:50;;;;;;;14.32;8.98;;;17.60;99.90;;;;;;5915106;39;20103;-70
2021/07/01 04:29:53;;;;;;;13.93;9.30;;;17.60;99.90;;;;;;5911189;39;20053;-71
2021/07/01 04:33:57;;;;;;;17.20;9.23;;;17.60;99.90;;;;;;5921945;39;20040;-72
2021/07/01 04:37:59;;;;;;;;;;;17.60;99.90;;;;;;5915077;40;20037;-71
2021/07/01 04:42:01;;;;;;;18.85;10.13;;;17.60;99.90;;;;;;5921727;39;20381;-71
2021/07/01 04:46:03;;;;;;;15.68;8.95;;;17.60;99.90;;;;;;5917234;40;20048;-71
2021/07/01 04:50:07;;;;;;;21.08;9.10;;;17.60;99.90;;;;;;5922218;39;20420;-72
2021/07/01 04:54:16;;;;;;;14.60;8.77;;;17.60;99.90;;;;;;5917374;39;20048;-72
2021/07/01 04:58:36;;;;;;;15.70;8.88;;;17.70;99.90;;;;;;5917642;39;20132;-72
2021/07/01 05:02:58;;;;;;;14.45;9.10;;;17.60;99.90;;;;;;5917866;39;20049;-71
2021/07/01 05:07:01;;;;;;;12.55;8.40;;;17.70;99.90;;;;;;5920479;40;20104;-72
2021/07/01 05:11:04;;;;;;;13.27;8.77;;;17.70;99.90;;;;;;5915511;39;20041;-71
2021/07/01 05:15:08;;;;;;;13.82;9.30;;;17.70;99.90;;;;;;5917406;39;20033;-70
2021/07/01 05:19:10;;;;;;;14.98;8.68;;;17.80;99.90;;;;;;5922753;39;20437;-69
2021/07/01 05:23:31;;;;;;;13.05;9.15;;;17.90;99.90;;;;;;5914826;40;20044;-72
2021/07/01 05:27:51;;;;;;;12.25;8.00;;;17.80;99.90;;;;;;5915964;39;20120;-72
2021/07/01 05:32:13;;;;;;;14.82;8.68;;;17.90;99.90;;;;;;5920863;39;20052;-74
2021/07/01 05:36:33;;;;;;;13.07;7.70;;;17.90;99.90;;;;;;5921206;40;20041;-77
2021/07/01 05:40:42;;;;;;;17.67;8.52;;;17.90;99.90;;;;;;5922604;40;20048;-78
2021/07/01 05:44:44;;;;;;;14.68;8.75;;;17.90;99.90;;;;;;5925960;39;20052;-77
2021/07/01 05:48:46;;;;;;;15.55;8.52;;;17.90;99.90;;;;;;5926406;39;20076;-77
2021/07/01 05:52:57;;;;;;;;;;;18.00;99.90;;;;;;5926624;39;20053;-79
2021/07/01 05:56:59;;;;;;;14.43;8.07;;;18.00;99.90;;;;;;5927338;40;19973;-82
2021/07/01 06:01:01;;;;;;;15.20;8.25;;;18.10;99.90;;;;;;5917611;40;20112;-80
2021/07/01 06:05:03;;;;;;;;;;;18.10;99.90;;;;;;5925548;39;20053;-81
2021/07/01 06:09:32;;;;;;;18.25;9.13;;;18.10;99.90;;;;;;5926190;40;20003;-80
2021/07/01 06:13:42;;;;;;;15.32;9.07;;;18.10;99.90;;;;;;5926559;40;20507;-78
2021/07/01 06:17:47;;;;;;;13.35;7.70;;;18.10;99.90;;;;;;5925409;40;20434;-79
2021/07/01 06:21:50;;;;;;;10.27;6.05;;;18.20;99.90;;;;;;5934306;39;20256;-83
2021/07/01 06:25:54;;;;;;;17.40;9.77;;;18.30;99.90;;;;;;5925808;39;20080;-80
2021/07/01 06:29:56;;;;;;;10.85;6.68;;;18.30;99.90;;;;;;5931468;39;20422;-77
2021/07/01 06:33:58;;;;;;;13.40;8.57;;;18.40;99.90;;;;;;5932556;40;20064;-81
2021/07/01 06:38:08;;;;;;;15.85;7.70;;;18.40;99.90;;;;;;5928667;39;20091;-84
2021/07/01 06:42:32;;;;;;;12.65;7.82;;;18.60;99.90;;;;;;5934128;39;20650;-78
2021/07/01 06:46:54;;;;;;;15.05;8.43;;;18.80;99.90;;;;;;5934900;39;20057;-81
2021/07/01 06:51:19;;;;;;;13.38;7.57;;;18.90;99.90;;;;;;5934919;40;20047;-77
2021/07/01 06:55:42;;;;;;;10.35;6.63;;;19.40;99.90;;;;;;5941156;39;20560;-80
2021/07/01 06:59:57;;;;;;;11.02;6.45;;;18.80;99.90;;;;;;5929196;39;20044;-78
2021/07/01 07:04:00;;;;;;;10.13;6.50;;;18.90;99.90;;;;;;5931931;39;20033;-80
2021/07/01 07:08:05;;;;;;;12.80;6.97;;;18.90;99.90;;;;;;5943038;39;20059;-78
2021/07/01 07:12:07;;;;;;;15.90;6.85;;;18.90;99.90;;;;;;5944405;39;20033;-83
2021/07/01 07:16:10;;;;;;;12.00;6.40;;;18.90;99.90;;;;;;5934601;39;20418;-78
2021/07/01 07:20:14;;;;;;;12.45;5.72;;;19.10;99.90;;;;;;5937080;39;20079;-82
2021/07/01 07:24:17;;;;;;;11.15;6.07;;;19.90;99.90;;;;;;5935710;39;20033;-83
2021/07/01 07:28:22;;;;;;;12.30;5.28;;;19.20;99.90;;;;;;5935551;40;20100;-78
2021/07/01 07:32:27;;;;;;;10.20;6.07;;;19.70;99.90;;;;;;5930875;39;20049;-82
2021/07/01 07:36:29;;;;;;;11.43;6.43;;;19.50;99.90;;;;;;5944974;39;20040;-80
2021/07/01 07:40:30;;;;;;;;;;;19.70;99.90;;;;;;5944079;39;20055;-81
2021/07/01 07:44:35;;;;;;;10.73;5.05;;;20.50;99.90;;;;;;5938007;40;19945;-83
2021/07/01 07:48:40;;;;;;;9.88;5.15;;;19.70;99.90;;;;;;5943580;39;20339;-80
2021/07/01 07:52:49;;;;;;;8.95;5.35;;;19.90;99.90;;;;;;5938397;39;20061;-78
2021/07/01 07:56:55;;;;;;;10.23;4.88;;;19.90;99.90;;;;;;5936296;39;20974;-78
2021/07/01 08:00:58;;;;;;;7.78;5.22;;;20.10;99.90;;;;;;5937970;39;20056;-77
2021/07/01 08:05:01;;;;;;;11.65;5.78;;;20.10;99.90;;;;;;5942419;39;20371;-76
2021/07/01 08:09:05;;;;;;;9.10;4.90;;;20.00;99.90;;;;;;5934561;39;20048;-81
2021/07/01 08:13:07;;;;;;;10.65;5.20;;;20.00;99.90;;;;;;5934285;40;20055;-79
2021/07/01 08:17:12;;;;;;;8.32;3.92;;;19.90;99.90;;;;;;5940778;39;20626;-84
2021/07/01 08:21:15;;;;;;;10.90;5.15;;;19.90;99.90;;;;;;5936048;39;20091;-82
2021/07/01 08:25:19;;;;;;;7.95;4.55;;;20.00;99.90;;;;;;5935853;39;20037;-80
2021/07/01 08:29:21;;;;;;;8.57;3.83;;;20.10;99.90;;;;;;5937000;39;20412;-76
2021/07/01 08:33:34;;;;;;;8.57;4.30;;;20.20;99.90;;;;;;5933519;39;20017;-76
2021/07/01 08:37:36;;;;;;;9.60;5.03;;;20.00;99.90;;;;;;5938440;39;20057;-74
2021/07/01 08:41:43;;;;;;;10.07;4.85;;;19.90;99.90;;;;;;5930556;39;20041;-75
2021/07/01 08:45:56;;;;;;;7.63;4.20;;;19.90;99.90;;;;;;5933559;40;20068;-76
2021/07/01 08:50:00;;;;;;;7.03;4.18;;;20.00;99.90;;;;;;5937979;39;20052;-78
2021/07/01 08:54:29;;;;;;;10.32;4.68;;;20.10;99.90;;;;;;5930722;39;20376;-84
2021/07/01 08:58:32;;;;;;;11.05;4.28;;;20.10;99.90;;;;;;5941210;39;20564;-77
2021/07/01 09:02:42;;;;;;;8.63;3.72;;;20.20;99.90;;;;;;5932598;40;20048;-80
2021/07/01 09:06:57;;;;;;;10.32;4.28;;;20.30;99.90;;;;;;5925385;39;20136;-75
2021/07/01 09:11:01;;;;;;;12.18;4.60;;;20.60;99.90;;;;;;5925831;40;20067;-75
2021/07/01 09:15:06;;;;;;;9.77;4.35;;;20.60;99.90;;;;;;5925890;39;20269;-76
2021/07/01 09:19:07;;;;;;;9.57;4.20;;;20.60;99.90;;;;;;5934312;39;20478;-79
2021/07/01 09:23:10;;;;;;;;;;;21.30;99.90;;;;;;5928391;39;20607;-79
2021/07/01 09:27:12;;;;;;;7.75;3.47;;;20.60;98.80;;;;;;5927879;39;19949;-76
2021/07/01 09:31:17;;;;;;;7.18;4.10;;;20.80;99.90;;;;;;5933843;39;20041;-74
2021/07/01 09:35:22;;;;;;;12.13;4.30;;;20.60;99.90;;;;;;5921383;39;20103;-74
2021/07/01 09:39:25;;;;;;;8.32;3.78;;;20.80;99.90;;;;;;5927724;39;20081;-76
2021/07/01 09:43:27;;;;;;;10.02;4.65;;;21.30;99.90;;;;;;5934995;39;20443;-75
2021/07/01 09:47:30;;;;;;;8.82;4.38;;;21.00;99.90;;;;;;5906105;39;20545;-75
2021/07/01 09:51:36;;;;;;;9.00;4.43;;;21.00;99.40;;;;;;5923504;39;21544;-75
2021/07/01 09:55:42;;;;;;;7.97;4.20;;;21.10;99.40;;;;;;5931801;40;20816;-77
2021/07/01 09:59:51;;;;;;;7.30;3.25;;;21.10;99.20;;;;;;5929899;39;20963;-74
2021/07/01 10:03:54;;;;;;;9.10;4.35;;;21.00;99.10;;;;;;5933428;39;20073;-78
2021/07/01 10:07:56;;;;;;;8.00;3.65;;;21.00;98.90;;;;;;5917888;40;20130;-75
2021/07/01 10:12:00;;;;;;;8.18;3.30;;;20.80;99.00;;;;;;5926851;39;20069;-78
2021/07/01 10:16:02;;;;;;;10.80;4.55;;;21.00;99.10;;;;;;5929511;39;20053;-74
2021/07/01 10:20:08;;;;;;;7.95;4.32;;;21.30;98.60;;;;;;5931549;40;20088;-77
2021/07/01 10:24:12;;;;;;;8.00;4.18;;;21.20;98.30;;;;;;5928789;39;20056;-77
2021/07/01 10:28:16;;;;;;;8.70;3.90;;;21.30;98.30;;;;;;5932959;40;20051;-75
2021/07/01 10:32:38;;;;;;;8.05;4.30;;;21.30;98.50;;;;;;5939122;39;20037;-78
2021/07/01 10:36:40;;;;;;;8.30;4.22;;;21.20;98.10;;;;;;5931381;39;20040;-79
2021/07/01 10:40:48;;;;;;;7.40;3.33;;;21.20;98.30;;;;;;5933349;40;20639;-77
2021/07/01 10:44:50;;;;;;;7.25;3.95;;;21.10;97.80;;;;;;5930535;39;20515;-77
2021/07/01 10:48:56;;;;;;;5.47;3.80;;;20.90;98.60;;;;;;5937361;39;20041;-77
2021/07/01 10:52:59;;;;;;;6.72;3.80;;;20.90;98.00;;;;;;5932242;40;20456;-77
2021/07/01 10:57:07;;;;;;;4.15;2.08;;;21.00;98.20;;;;;;5933897;39;20091;-80
2021/07/01 11:01:27;;;;;;;6.32;2.78;;;21.20;98.30;;;;;;5934972;39;20362;-79
2021/07/01 11:10:53;;;;;;;5.82;3.38;;;21.30;97.60;;;;;;5928575;39;20025;-77
2021/07/01 11:14:56;;;;;;;8.07;3.72;;;21.50;96.70;;;;;;5931006;39;20033;-76
2021/07/01 11:18:58;;;;;;;6.35;3.83;;;21.40;96.90;;;;;;5931220;39;20047;-76
2021/07/01 11:23:02;;;;;;;6.07;3.28;;;21.90;97.30;;;;;;5928932;40;20670;-74
2021/07/01 11:27:04;;;;;;;6.70;3.30;;;21.60;96.80;;;;;;5928655;39;20340;-78
2021/07/01 11:31:06;;;;;;;6.05;3.47;;;21.70;96.80;;;;;;5928624;39;20639;-77
2021/07/01 11:35:08;;;;;;;5.90;2.90;;;21.60;96.30;;;;;;5939970;39;20074;-78
2021/07/01 11:39:15;;;;;;;7.55;3.30;;;21.70;96.70;;;;;;5931973;39;20044;-74
2021/07/01 11:43:19;;;;;;;6.85;3.35;;;21.70;96.00;;;;;;5932316;40;20728;-81
2021/07/01 11:47:21;;;;;;;6.03;3.20;;;21.60;96.20;;;;;;5922644;40;20075;-76
2021/07/01 11:51:24;;;;;;;6.13;3.47;;;22.20;96.80;;;;;;5929452;40;20036;-77
2021/07/01 11:55:26;;;;;;;6.63;3.40;;;21.30;96.70;;;;;;5937977;40;20053;-77
2021/07/01 11:59:31;;;;;;;7.78;3.38;;;21.30;96.70;;;;;;5931887;40;20071;-80
2021/07/01 12:03:33;;;;;;;4.63;2.70;;;21.60;96.60;;;;;;5933888;40;20391;-77
2021/07/01 12:07:41;;;;;;;6.90;3.55;;;21.80;96.40;;;;;;5937122;39;20053;-78
2021/07/01 12:12:02;;;;;;;7.10;3.85;;;21.70;96.60;;;;;;5931765;39;20559;-81
2021/07/01 12:16:10;;;;;;;6.63;3.60;;;21.80;95.60;;;;;;5931518;40;20044;-79
2021/07/01 12:20:24;;;;;;;6.63;3.40;;;21.90;96.10;;;;;;5937503;39;20835;-79
2021/07/01 12:24:30;;;;;;;5.30;3.17;;;22.50;96.10;;;;;;5932213;39;20025;-78
2021/07/01 12:28:38;;;;;;;6.00;3.47;;;22.00;95.50;;;;;;5938956;39;20056;-77
2021/07/01 12:32:40;;;;;;;5.85;2.83;;;22.30;95.00;;;;;;5932296;39;20355;-78
2021/07/01 12:36:45;;;;;;;5.47;3.20;;;22.50;93.90;;;;;;5932276;39;20064;-78
2021/07/01 12:40:59;;;;;;;6.57;3.05;;;22.90;94.00;;;;;;5929116;40;20416;-80
2021/07/01 12:45:06;;;;;;;3.33;2.25;;;23.00;92.10;;;;;;5937959;39;20064;-74
2021/07/01 12:49:37;;;;;;;8.02;2.85;;;22.60;93.10;;;;;;5938834;39;20052;-78
2021/07/01 12:53:39;;;;;;;4.30;1.95;;;22.60;90.50;;;;;;5923731;40;20041;-81
2021/07/01 12:57:41;;;;;;;6.90;3.38;;;22.70;93.30;;;;;;5932415;39;20049;-79
2021/07/01 13:01:44;;;;;;;6.53;2.85;;;22.60;93.40;;;;;;5935097;39;20211;-81
2021/07/01 13:05:46;;;;;;;4.93;3.38;;;22.80;93.10;;;;;;5930905;39;20036;-84
2021/07/01 13:09:49;;;;;;;5.07;3.28;;;22.60;92.90;;;;;;5930959;39;20069;-77
2021/07/01 13:14:01;;;;;;;6.70;3.50;;;23.00;93.30;;;;;;5937931;39;20110;-77
2021/07/01 13:18:03;;;;;;;6.22;3.40;;;22.90;93.10;;;;;;5937976;39;20044;-76
2021/07/01 13:22:14;;;;;;;10.75;3.63;;;22.80;92.90;;;;;;5930177;40;20063;-79
2021/07/01 13:26:16;;;;;;;12.02;4.50;;;22.80;92.50;;;;;;5926973;39;20065;-77
2021/07/01 13:30:31;;;;;;;6.95;3.70;;;22.70;92.70;;;;;;5926464;39;20079;-77
2021/07/01 13:34:34;;;;;;;5.90;3.05;;;22.50;91.20;;;;;;5927897;39;20067;-77
2021/07/01 13:38:37;;;;;;;7.72;4.40;;;22.30;93.70;;;;;;5919617;39;20055;-79
2021/07/01 13:42:39;;;;;;;10.20;3.90;;;22.20;93.50;;;;;;5932033;39;20793;-80
2021/07/01 13:46:41;;;;;;;9.43;4.75;;;22.00;93.60;;;;;;5931977;39;20463;-78
2021/07/01 13:50:47;;;;;;;7.63;4.03;;;22.10;93.40;;;;;;5930004;39;20468;-80
2021/07/01 13:54:49;;;;;;;7.15;4.03;;;22.10;93.40;;;;;;5934019;39;20065;-80
2021/07/01 13:58:51;;;;;;;13.50;4.32;;;22.50;94.00;;;;;;5942746;39;20103;-83
2021/07/01 14:03:05;;;;;;;13.35;4.97;;;21.70;93.90;;;;;;5924216;40;20068;-76
2021/07/01 14:07:07;;;;;;;8.90;3.97;;;21.80;93.70;;;;;;5930187;39;20033;-82
2021/07/01 14:11:10;;;;;;;4.85;3.47;;;21.80;94.20;;;;;;5931729;40;20049;-79
2021/07/01 14:15:13;;;;;;;14.52;4.03;;;21.80;93.90;;;;;;5934010;39;20154;-80
2021/07/01 14:19:17;;;;;;;7.57;3.55;;;22.70;94.00;;;;;;5932161;40;20054;-80
2021/07/01 14:23:37;;;;;;;8.43;3.47;;;21.80;94.00;;;;;;5933482;39;20030;-80
2021/07/01 14:27:42;;;;;;;5.53;2.78;;;22.00;93.90;;;;;;5938609;39;20029;-79
2021/07/01 14:31:44;;;;;;;7.20;3.35;;;22.10;93.60;;;;;;5930509;39;20061;-82
2021/07/01 14:35:56;;;;;;;7.53;3.30;;;22.00;93.40;;;;;;5936586;40;20544;-78
2021/07/01 14:40:02;;;;;;;;;;;22.00;93.30;;;;;;5934146;39;20090;-78
2021/07/01 14:44:24;;;;;;;6.22;3.00;;;22.00;91.10;;;;;;5931257;39;19941;-81
2021/07/01 14:48:29;;;;;;;;;;;22.10;93.00;;;;;;5931000;39;20037;-78
2021/07/01 14:52:34;;;;;;;8.82;3.20;;;22.10;90.70;;;;;;5928786;40;19933;-82
2021/07/01 14:56:42;;;;;;;5.88;2.70;;;22.10;93.10;;;;;;5941714;39;20095;-80
2021/07/01 15:00:56;;;;;;;6.88;2.78;;;22.00;92.80;;;;;;5941341;40;20518;-87
2021/07/01 15:05:09;;;;;;;6.63;2.83;;;22.00;92.50;;;;;;5935385;39;20041;-82
2021/07/01 15:09:15;;;;;;;6.25;2.88;;;21.90;92.80;;;;;;5924591;39;20064;-84
2021/07/01 15:13:20;;;;;;;5.75;3.67;;;21.80;92.70;;;;;;5941507;39;20057;-83
2021/07/01 15:17:24;;;;;;;7.45;2.60;;;23.10;93.10;;;;;;5935077;39;20474;-82
2021/07/01 15:21:26;;;;;;;5.68;2.90;;;21.60;92.80;;;;;;5927146;39;20839;-81
2021/07/01 15:25:28;;;;;;;;;;;21.50;93.10;;;;;;5934159;39;20047;-86
2021/07/01 15:29:30;;;;;;;6.78;3.25;;;21.40;91.70;;;;;;5974364;22;20124;-84
2021/07/01 15:33:31;;;;;;;6.10;2.47;;;21.20;93.40;;;;;;5941094;39;20194;-83
2021/07/01 15:37:34;;;;;;;;;;;21.30;93.50;;;;;;5928271;39;20062;-83
2021/07/01 15:41:36;;;;;;;6.28;2.95;;;21.20;91.40;;;;;;5929709;39;20632;-87
2021/07/01 15:45:38;;;;;;;;;;;21.30;93.20;;;;;;5941500;39;20056;-83
2021/07/01 15:49:41;;;;;;;;;;;21.40;91.20;;;;;;5937613;40;20527;-85
2021/07/01 15:53:43;;;;;;;5.15;2.63;;;21.30;91.30;;;;;;5945342;39;19924;-82
2021/07/01 15:57:47;;;;;;;7.18;2.35;;;21.30;93.30;;;;;;5944999;40;20118;-84
2021/07/01 16:01:54;;;;;;;5.53;2.47;;;21.20;93.30;;;;;;5944682;39;20025;-82
2021/07/01 16:05:56;;;;;;;5.82;2.40;;;21.50;93.30;;;;;;5944329;39;20093;-82
2021/07/01 16:09:59;;;;;;;5.82;2.75;;;21.50;93.30;;;;;;5944972;40;20053;-82
2021/07/01 16:14:01;;;;;;;5.25;2.38;;;21.80;93.40;;;;;;5942508;40;20232;-80
2021/07/01 16:18:05;;;;;;;5.20;2.30;;;21.50;93.00;;;;;;5948432;39;20048;-79
2021/07/01 16:22:07;;;;;;;6.25;3.10;;;21.40;93.30;;;;;;5948249;39;20029;-85
2021/07/01 16:26:09;;;;;;;8.50;3.38;;;22.30;93.80;;;;;;5951894;39;20072;-81
2021/07/01 16:30:12;;;;;;;10.27;7.07;;;21.40;93.30;;;;;;5929789;40;20061;-82
2021/07/01 16:34:14;;;;;;;5.18;2.42;;;21.40;93.30;;;;;;5936118;39;20066;-85
2021/07/01 16:38:17;;;;;;;5.88;2.80;;;22.40;93.70;;;;;;5929039;39;20094;-82
2021/07/01 16:42:20;;;;;;;9.63;2.97;;;21.30;93.40;;;;;;5945230;39;20750;-82
2021/07/01 16:46:30;;;;;;;5.85;2.65;;;21.20;93.60;;;;;;5947005;40;20052;-86
2021/07/01 16:50:38;;;;;;;6.90;2.95;;;21.50;93.30;;;;;;5938446;39;20637;-82
2021/07/01 16:54:40;;;;;;;6.65;2.53;;;21.40;93.30;;;;;;5936555;39;21024;-86
2021/07/01 16:58:47;;;;;;;5.82;2.85;;;22.90;93.80;;;;;;5927560;40;20118;-81
2021/07/01 17:02:49;;;;;;;7.28;2.97;;;21.40;93.60;;;;;;5925872;39;20053;-81
2021/07/01 17:06:53;;;;;;;7.70;2.85;;;21.40;93.70;;;;;;5927751;39;20474;-81
2021/07/01 17:10:57;;;;;;;6.78;2.67;;;21.50;93.60;;;;;;5927923;39;20043;-81
2021/07/01 17:14:59;;;;;;;7.22;2.80;;;21.40;93.50;;;;;;5932522;39;20626;-80
2021/07/01 17:19:03;;;;;;;5.88;2.83;;;21.80;93.70;;;;;;5927587;40;20049;-81
2021/07/01 17:23:06;;;;;;;5.95;2.50;;;21.40;93.20;;;;;;5938749;40;20103;-80
2021/07/01 17:27:09;;;;;;;4.43;2.50;;;21.80;93.40;;;;;;5940007;40;20336;-78
2021/07/01 17:31:10;;;;;;;7.28;2.83;;;21.30;93.50;;;;;;5945696;40;20394;-80
2021/07/01 17:35:12;;;;;;;5.35;2.47;;;21.20;93.30;;;;;;5944943;39;20032;-83
2021/07/01 17:39:18;;;;;;;6.57;3.13;;;21.10;93.70;;;;;;5945506;40;20049;-80
2021/07/01 17:43:20;;;;;;;5.93;2.72;;;21.10;93.70;;;;;;5945703;39;20049;-83
2021/07/01 17:47:22;;;;;;;7.30;2.75;;;21.00;93.60;;;;;;5941812;39;20036;-80
2021/07/01 17:51:24;;;;;;;5.65;2.58;;;21.00;93.60;;;;;;5930549;40;20036;-82
2021/07/01 17:55:26;;;;;;;6.22;2.70;;;20.90;93.50;;;;;;5929888;40;20594;-82
2021/07/01 17:59:28;;;;;;;;;;;20.90;93.70;;;;;;5932696;39;20083;-83
2021/07/01 18:03:30;;;;;;;5.35;2.50;;;20.90;92.50;;;;;;5922764;40;20405;-82
2021/07/01 18:11:49;;;;;;;4.50;2.45;;;20.80;93.80;;;;;;5913299;40;20635;-80
2021/07/01 18:15:51;;;;;;;6.97;2.55;;;20.80;93.70;;;;;;5901679;40;20198;-81
2021/07/01 18:19:52;;;;;;;4.28;2.40;;;20.90;93.90;;;;;;5898520;40;20046;-81
2021/07/01 18:23:54;;;;;;;;;;;22.20;94.20;;;;;;5896634;40;20089;-81
2021/07/01 18:27:57;;;;;;;6.35;2.50;;;20.70;93.00;;;;;;5890923;40;19941;-78
2021/07/01 18:32:00;;;;;;;6.80;3.05;;;20.60;94.00;;;;;;5890975;40;20069;-77
2021/07/01 18:36:02;;;;;;;8.35;2.95;;;20.60;94.10;;;;;;5901013;40;20046;-85
2021/07/01 18:40:05;;;;;;;6.35;2.45;;;20.60;94.10;;;;;;5906136;40;20102;-83
2021/07/01 18:44:08;;;;;;;4.47;2.20;;;20.50;94.20;;;;;;5896288;40;20085;-81
2021/07/01 18:48:10;;;;;;;5.60;2.70;;;20.50;94.20;;;;;;5907109;40;20046;-82
2021/07/01 18:52:12;;;;;;;;;;;20.40;94.30;;;;;;5899177;40;20077;-82
2021/07/01 18:56:14;;;;;;;5.80;2.42;;;20.30;94.00;;;;;;5908000;40;20522;-82
2021/07/01 19:00:18;;;;;;;4.43;2.58;;;20.30;94.60;;;;;;5890519;40;20154;-69
2021/07/01 19:04:20;;;;;;;6.85;2.17;;;20.30;94.50;;;;;;5874669;40;20094;-70
2021/07/01 19:08:22;;;;;;;5.80;2.58;;;20.30;94.40;;;;;;5872748;40;20074;-69
2021/07/01 19:12:24;;;;;;;8.27;2.40;;;20.30;94.50;;;;;;5883380;40;20167;-69
2021/07/01 19:16:26;;;;;;;7.57;2.20;;;20.30;94.50;;;;;;5873239;40;20048;-69
2021/07/01 19:20:29;;;;;;;7.43;2.20;;;20.30;94.50;;;;;;5878500;40;20062;-69
2021/07/01 19:24:31;;;;;;;8.85;2.60;;;20.30;94.50;;;;;;5874779;40;20486;-69
2021/07/01 19:28:33;;;;;;;5.03;2.30;;;20.30;94.70;;;;;;5876446;40;20062;-69
2021/07/01 19:32:35;;;;;;;5.03;2.15;;;20.30;94.90;;;;;;5871770;40;20094;-70
2021/07/01 19:36:38;;;;;;;5.63;2.50;;;20.30;94.90;;;;;;5873336;40;20057;-69
2021/07/01 19:40:39;;;;;;;;;;;20.30;94.90;;;;;;5876073;40;20054;-69
2021/07/01 19:44:42;;;;;;;4.57;2.33;;;20.30;95.00;;;;;;5872421;40;19941;-69
2021/07/01 19:48:47;;;;;;;6.20;2.40;;;20.30;95.10;;;;;;5873715;40;20403;-69
2021/07/01 19:52:50;;;;;;;6.28;2.28;;;20.20;95.10;;;;;;5873654;40;20412;-69
2021/07/01 19:56:56;;;;;;;8.07;2.45;;;20.20;95.20;;;;;;5876068;40;20064;-69
2021/07/01 20:00:58;;;;;;;5.80;2.55;;;20.10;95.20;;;;;;5873684;40;20437;-69
2021/07/01 20:04:59;;;;;;;;;;;20.10;95.30;;;;;;5875399;40;20064;-70
2021/07/01 20:09:02;;;;;;;7.72;2.65;;;20.00;95.20;;;;;;5879433;40;20171;-69
2021/07/01 20:13:04;;;;;;;5.68;3.17;;;20.00;95.40;;;;;;5862977;40;20065;-69
2021/07/01 20:17:07;;;;;;;7.50;2.53;;;19.90;95.60;;;;;;5875251;40;20042;-69
2021/07/01 20:21:09;;;;;;;6.80;2.92;;;19.80;95.60;;;;;;5873368;40;20311;-69
2021/07/01 20:25:11;;;;;;;5.05;2.58;;;19.80;95.70;;;;;;5882020;40;20058;-69
2021/07/01 20:29:14;;;;;;;;;;;19.60;95.80;;;;;;5876122;40;20092;-69
2021/07/01 20:33:15;;;;;;;6.05;2.95;;;19.60;95.60;;;;;;5887188;40;20031;-70
2021/07/01 20:37:17;;;;;;;;;;;19.50;95.80;;;;;;5879663;40;20392;-70
2021/07/01 20:41:19;;;;;;;6.18;3.00;;;19.40;95.60;;;;;;5882861;40;19977;-70
2021/07/01 20:45:22;;;;;;;5.60;2.80;;;19.40;95.90;;;;;;5877473;40;20055;-70
2021/07/01 20:49:24;;;;;;;4.72;2.65;;;19.40;96.00;;;;;;5873636;40;20180;-70
2021/07/01 20:53:26;;;;;;;;;;;19.30;96.20;;;;;;5876009;40;20504;-70
2021/07/01 20:57:28;;;;;;;;;;;19.20;95.70;;;;;;5883626;40;19937;-70
2021/07/01 21:01:31;;;;;;;5.82;3.30;;;19.10;95.70;;;;;;5878464;40;19945;-69
2021/07/01 21:05:34;;;;;;;7.28;3.03;;;19.10;96.20;;;;;;5881546;40;20054;-69
2021/07/01 21:09:40;;;;;;;7.32;3.17;;;19.10;96.40;;;;;;5885501;40;20050;-71
2021/07/01 21:13:42;;;;;;;5.80;3.45;;;19.10;96.40;;;;;;5881170;40;20251;-71
2021/07/01 21:17:45;;;;;;;9.95;5.30;;;19.10;96.50;;;;;;5878924;40;20093;-71
2021/07/01 21:21:47;;;;;;;6.78;4.53;;;19.00;96.50;;;;;;5880136;40;20401;-70
2021/07/01 21:25:50;;;;;;;;;;;18.90;96.60;;;;;;5879703;40;20590;-70
2021/07/01 21:29:52;;;;;;;8.43;3.38;;;18.90;96.20;;;;;;5876743;40;20020;-70
2021/07/01 21:33:54;;;;;;;7.45;3.10;;;18.90;96.70;;;;;;5876402;40;20128;-70
2021/07/01 21:37:59;;;;;;;6.18;3.20;;;19.00;96.80;;;;;;5883847;40;20261;-70